createdAt,value
2022-12-13T00:02:18.877Z,46.97
2022-12-13T00:07:23.656Z,46.95
2022-12-13T00:12:27.700Z,46.55
2022-12-13T00:17:32.698Z,45.94
2022-12-13T00:22:37.473Z,45.94
2022-12-13T00:27:41.063Z,45.95
2022-12-13T00:32:44.453Z,46.13
2022-12-13T00:37:49.244Z,45.94
2022-12-13T00:42:52.598Z,45.92
2022-12-13T00:47:55.949Z,46.18
2022-12-13T00:53:01.690Z,46.57
2022-12-13T00:58:05.083Z,46.39
2022-12-13T01:03:20.451Z,46.77
2022-12-13T01:08:25.764Z,46.00
2022-12-13T01:13:29.226Z,45.35
2022-12-13T01:18:32.996Z,45.70
2022-12-13T01:23:37.916Z,45.81
2022-12-13T01:28:41.648Z,45.96
2022-12-13T01:33:45.464Z,46.09
2022-12-13T01:38:50.291Z,46.08
2022-12-13T01:44:00.900Z,45.75
2022-12-13T01:49:19.725Z,45.99
2022-12-13T01:54:33.622Z,45.24
2022-12-13T01:59:39.251Z,45.22
2022-12-13T02:04:53.345Z,44.70
2022-12-13T02:10:00.589Z,45.09
2022-12-13T02:15:07.815Z,45.18
2022-12-13T02:20:38.792Z,45.91
2022-12-13T02:25:57.608Z,45.77
2022-12-13T02:31:07.943Z,45.56
2022-12-13T02:36:14.656Z,45.37
2022-12-13T02:41:21.535Z,45.29
2022-12-13T02:46:31.526Z,45.22
2022-12-13T02:51:36.149Z,45.55
2022-12-13T02:56:39.702Z,45.00
2022-12-13T03:02:09.487Z,45.38
2022-12-13T03:07:19.968Z,46.17
2022-12-13T03:12:44.677Z,46.49
2022-12-13T03:17:53.242Z,47.25
2022-12-13T03:22:57.754Z,47.10
2022-12-13T03:28:02.410Z,46.62
2022-12-13T03:33:07.770Z,46.76
2022-12-13T03:38:11.604Z,46.20
2022-12-13T03:43:15.176Z,47.16
2022-12-13T03:48:27.296Z,47.32
2022-12-13T03:53:32.450Z,47.00
2022-12-13T03:58:37.904Z,46.85
2022-12-13T04:03:45.607Z,47.64
2022-12-13T04:08:51.035Z,47.24
2022-12-13T04:13:55.387Z,46.64
2022-12-13T04:19:00.104Z,46.55
2022-12-13T04:24:04.995Z,46.19
2022-12-13T04:29:08.386Z,47.46
2022-12-13T04:34:13.091Z,47.72
2022-12-13T04:39:21.620Z,47.25
2022-12-13T04:44:27.316Z,47.05
2022-12-13T04:49:34.329Z,47.26
2022-12-13T04:54:37.858Z,48.08
2022-12-13T04:59:41.744Z,47.05
2022-12-13T05:04:47.374Z,46.85
2022-12-13T05:09:57.222Z,46.46
2022-12-13T05:15:00.628Z,46.56
2022-12-13T05:20:06.260Z,46.94
2022-12-13T05:25:10.146Z,46.53
2022-12-13T05:30:14.421Z,46.04
2022-12-13T05:35:22.473Z,46.69
2022-12-13T05:40:28.612Z,46.60
2022-12-13T05:45:32.700Z,46.43
2022-12-13T05:50:39.059Z,46.23
2022-12-13T05:55:42.473Z,46.98
2022-12-13T06:00:46.026Z,47.69
2022-12-13T06:05:50.788Z,47.79
2022-12-13T06:10:55.814Z,47.25
2022-12-13T06:16:23.173Z,47.10
2022-12-13T06:21:33.363Z,47.73
2022-12-13T06:26:49.516Z,47.21
2022-12-13T06:32:01.218Z,47.25
2022-12-13T06:37:09.169Z,46.79
2022-12-13T06:42:22.200Z,46.96
2022-12-13T06:47:32.182Z,46.73
2022-12-13T06:52:37.785Z,46.83
2022-12-13T06:57:41.341Z,46.66
2022-12-13T07:02:45.032Z,47.25
2022-12-13T07:07:49.926Z,46.78
2022-12-13T07:12:53.398Z,46.96
2022-12-13T07:17:56.859Z,47.59
2022-12-13T07:23:01.982Z,46.48
2022-12-13T07:28:06.581Z,46.39
2022-12-13T07:33:10.435Z,46.84
2022-12-13T07:38:15.451Z,46.46
2022-12-13T07:43:19.234Z,46.72
2022-12-13T07:48:22.897Z,46.21
2022-12-13T07:53:28.624Z,46.15
2022-12-13T07:58:37.429Z,47.13
2022-12-13T08:03:40.822Z,46.61
2022-12-13T08:08:46.522Z,46.79
2022-12-13T08:13:50.768Z,46.80
2022-12-13T08:19:01.597Z,47.09
2022-12-13T08:24:15.485Z,46.73
2022-12-13T08:29:22.420Z,46.85
2022-12-13T08:34:36.394Z,47.17
2022-12-13T08:39:41.331Z,47.84
2022-12-13T08:44:44.845Z,47.79
2022-12-13T08:49:49.429Z,47.49
2022-12-13T08:54:54.282Z,47.80
2022-12-13T08:59:57.803Z,47.22
2022-12-13T09:05:01.581Z,47.32
2022-12-13T09:10:38.400Z,46.64
2022-12-13T09:15:45.832Z,46.68
2022-12-13T09:20:49.599Z,45.78
2022-12-13T09:26:05.160Z,45.64
2022-12-13T09:31:10.248Z,45.55
2022-12-13T09:36:15.315Z,46.10
2022-12-13T09:41:28.891Z,45.72
2022-12-13T09:46:44.284Z,45.36
2022-12-13T09:52:01.293Z,45.94
2022-12-13T09:57:32.991Z,45.63
2022-12-13T10:02:44.781Z,47.11
2022-12-13T10:07:48.440Z,46.32
2022-12-13T10:12:57.401Z,45.85
2022-12-13T10:18:02.179Z,45.13
2022-12-13T10:23:33.206Z,45.62
2022-12-13T10:28:33.056Z,45.56
2022-12-13T10:33:38.381Z,45.36
2022-12-13T10:38:43.217Z,44.34
2022-12-13T10:44:08.807Z,44.93
2022-12-13T10:49:17.614Z,44.65
2022-12-13T10:54:27.726Z,44.37
2022-12-13T10:59:35.050Z,45.44
2022-12-13T11:04:38.557Z,44.52
2022-12-13T11:09:41.936Z,45.63
2022-12-13T11:14:54.037Z,45.57
2022-12-13T11:19:59.223Z,44.47
2022-12-13T11:25:04.801Z,44.74
2022-12-13T11:30:14.333Z,43.46
2022-12-13T11:35:22.629Z,43.49
2022-12-13T11:40:29.296Z,43.51
2022-12-13T11:45:38.733Z,43.71
2022-12-13T11:50:44.215Z,43.11
2022-12-13T11:55:51.146Z,43.34
2022-12-13T12:01:00.115Z,43.87
2022-12-13T12:06:08.774Z,44.02
2022-12-13T12:11:19.031Z,43.46
2022-12-13T12:16:30.144Z,43.05
2022-12-13T12:22:12.321Z,42.25
2022-12-13T12:27:22.345Z,41.86
2022-12-13T12:32:33.990Z,41.86
2022-12-13T12:37:46.100Z,42.33
2022-12-13T12:43:14.070Z,42.22
2022-12-13T12:48:50.960Z,41.28
2022-12-13T12:53:54.805Z,41.04
2022-12-13T12:59:02.322Z,40.90
2022-12-13T13:04:09.915Z,41.20
2022-12-13T13:09:15.206Z,40.34
2022-12-13T13:14:31.214Z,40.23
2022-12-13T13:19:47.391Z,40.29
2022-12-13T13:25:14.713Z,41.09
2022-12-13T13:30:20.918Z,40.45
2022-12-13T13:35:54.381Z,40.44
2022-12-13T13:40:58.115Z,40.79
2022-12-13T13:46:10.803Z,40.79
2022-12-13T13:51:41.465Z,40.06
2022-12-13T13:57:15.985Z,40.02
2022-12-13T14:03:01.639Z,40.52
2022-12-13T14:08:30.053Z,40.78
2022-12-13T14:13:56.725Z,41.17
2022-12-13T14:19:33.296Z,41.23
2022-12-13T14:24:57.589Z,41.57
2022-12-13T14:30:01.702Z,41.46
2022-12-13T14:35:26.212Z,41.37
2022-12-13T14:40:33.989Z,41.71
2022-12-13T14:45:38.798Z,40.86
2022-12-13T14:50:44.873Z,41.37
2022-12-13T14:56:03.502Z,41.44
2022-12-13T15:01:08.058Z,42.77
2022-12-13T15:06:12.239Z,42.40
2022-12-13T15:11:17.167Z,42.62
2022-12-13T15:16:29.643Z,43.04
2022-12-13T15:21:38.713Z,42.63
2022-12-13T15:26:48.050Z,42.78
2022-12-13T15:31:51.702Z,42.82
2022-12-13T15:36:55.874Z,42.82
2022-12-13T15:42:00.819Z,43.23
2022-12-13T15:47:09.573Z,43.18
2022-12-13T15:52:26.781Z,42.97
2022-12-13T15:57:33.108Z,43.50
2022-12-13T16:02:36.812Z,43.32
2022-12-13T16:07:41.804Z,43.28
2022-12-13T16:12:51.388Z,43.37
2022-12-13T16:18:12.985Z,43.47
2022-12-13T16:23:26.831Z,43.49
2022-12-13T16:28:32.870Z,43.61
2022-12-13T16:33:36.623Z,44.22
2022-12-13T16:38:40.431Z,43.93
2022-12-13T16:43:52.324Z,44.23
2022-12-13T16:48:56.192Z,44.28
2022-12-13T16:53:59.659Z,43.92
2022-12-13T16:59:04.742Z,44.12
2022-12-13T17:04:16.334Z,44.17
2022-12-13T17:09:23.159Z,44.54
2022-12-13T17:14:28.024Z,44.37
2022-12-13T17:19:31.498Z,44.98
2022-12-13T17:24:35.654Z,44.85
2022-12-13T17:29:40.458Z,45.04
2022-12-13T17:34:43.892Z,44.64
2022-12-13T17:39:47.452Z,44.07
2022-12-13T17:44:52.229Z,44.66
2022-12-13T17:49:55.713Z,44.25
2022-12-13T17:55:00.916Z,44.08
2022-12-13T18:00:07.332Z,44.12
2022-12-13T18:05:17.970Z,44.18
2022-12-13T18:10:26.342Z,43.95
2022-12-13T18:15:36.964Z,43.89
2022-12-13T18:20:40.457Z,44.37
2022-12-13T18:25:44.425Z,44.62
2022-12-13T18:30:49.357Z,44.66
2022-12-13T18:35:57.630Z,44.97
2022-12-13T18:41:06.896Z,44.87
2022-12-13T18:46:14.816Z,44.67
2022-12-13T18:51:19.210Z,44.04
2022-12-13T18:56:22.834Z,44.48
2022-12-13T19:01:28.505Z,44.12
2022-12-13T19:06:31.930Z,44.02
2022-12-13T19:11:35.347Z,43.91
2022-12-13T19:16:40.123Z,43.96
2022-12-13T19:21:43.542Z,43.61
2022-12-13T19:26:47.031Z,43.85
2022-12-13T19:31:52.174Z,43.99
2022-12-13T19:36:55.592Z,44.29
2022-12-13T19:41:59.004Z,44.06
2022-12-13T19:47:03.861Z,44.19
2022-12-13T19:52:07.490Z,44.25
2022-12-13T19:57:11.190Z,44.11
2022-12-13T20:02:16.057Z,44.25
2022-12-13T20:07:19.672Z,44.25
2022-12-13T20:12:23.237Z,44.62
2022-12-13T20:17:28.061Z,44.48
2022-12-13T20:22:31.501Z,44.91
2022-12-13T20:27:34.874Z,44.55
2022-12-13T20:32:39.765Z,44.23
2022-12-13T20:37:43.252Z,44.21
2022-12-13T20:42:51.923Z,44.88
2022-12-13T20:48:15.382Z,45.09
2022-12-13T20:53:18.788Z,46.15
2022-12-13T20:58:22.153Z,45.64
2022-12-13T21:03:27.524Z,45.26
2022-12-13T21:08:48.758Z,45.04
2022-12-13T21:13:53.544Z,44.73
2022-12-13T21:19:00.581Z,44.67
2022-12-13T21:24:04.150Z,44.56
2022-12-13T21:29:10.789Z,45.38
2022-12-13T21:34:15.971Z,44.52
2022-12-13T21:39:22.485Z,44.76
2022-12-13T21:44:26.086Z,45.09
2022-12-13T21:49:30.948Z,45.51
2022-12-13T21:54:34.435Z,45.40
2022-12-13T21:59:37.949Z,45.89
2022-12-13T22:04:44.416Z,45.46
2022-12-13T22:09:48.651Z,45.18
2022-12-13T22:14:52.847Z,44.84
2022-12-13T22:19:58.564Z,45.27
2022-12-13T22:25:02.021Z,45.30
2022-12-13T22:30:06.437Z,45.09
2022-12-13T22:35:11.773Z,44.89
2022-12-13T22:40:15.197Z,45.16
2022-12-13T22:45:18.853Z,44.81
2022-12-13T22:50:24.211Z,44.95
2022-12-13T22:55:27.616Z,45.04
2022-12-13T23:00:31.071Z,45.00
2022-12-13T23:05:35.981Z,44.90
2022-12-13T23:10:57.035Z,44.81
2022-12-13T23:16:00.430Z,45.22
2022-12-13T23:21:05.318Z,44.53
2022-12-13T23:26:10.854Z,44.90
2022-12-13T23:31:15.214Z,45.03
2022-12-13T23:36:23.185Z,44.91
2022-12-13T23:41:32.374Z,44.71
2022-12-13T23:46:37.673Z,44.55
2022-12-13T23:51:42.484Z,44.61
2022-12-13T23:56:47.575Z,44.66
